createdAt,value
2023-01-26T00:01:12.511Z,15.10
2023-01-26T00:03:39.011Z,13.48
2023-01-26T00:06:06.218Z,13.55
2023-01-26T00:08:39.557Z,13.57
2023-01-26T00:11:07.180Z,13.68
2023-01-26T00:13:34.139Z,13.73
2023-01-26T00:16:01.159Z,14.57
2023-01-26T00:18:27.563Z,15.40
2023-01-26T00:21:01.699Z,13.98
2023-01-26T00:23:30.092Z,12.85
2023-01-26T00:25:56.548Z,12.27
2023-01-26T00:28:23.105Z,12.32
2023-01-26T00:30:49.505Z,13.30
2023-01-26T00:33:18.382Z,12.15
2023-01-26T00:35:44.809Z,11.80
2023-01-26T00:38:17.251Z,12.45
2023-01-26T00:40:43.702Z,12.18
2023-01-26T00:43:10.161Z,11.98
2023-01-26T00:45:37.914Z,12.35
2023-01-26T00:48:04.426Z,13.55
2023-01-26T00:50:31.306Z,12.93
2023-01-26T00:52:57.683Z,12.48
2023-01-26T00:55:24.531Z,11.75
2023-01-26T00:57:50.945Z,13.10
2023-01-26T01:00:17.821Z,12.05
2023-01-26T01:02:44.542Z,12.55
2023-01-26T01:05:11.277Z,11.85
2023-01-26T01:07:38.972Z,11.43
2023-01-26T01:10:05.495Z,10.68
2023-01-26T01:12:31.871Z,10.98
2023-01-26T01:14:58.272Z,10.30
2023-01-26T01:17:24.669Z,10.18
2023-01-26T01:19:51.035Z,11.60
2023-01-26T01:22:17.440Z,10.77
2023-01-26T01:24:43.833Z,8.93
2023-01-26T01:27:10.376Z,7.78
2023-01-26T01:29:36.827Z,7.53
2023-01-26T01:32:03.264Z,6.80
2023-01-26T01:34:29.733Z,7.35
2023-01-26T01:36:56.281Z,6.38
2023-01-26T01:39:22.647Z,6.30
2023-01-26T01:41:48.992Z,6.68
2023-01-26T01:44:17.774Z,6.93
2023-01-26T01:46:55.317Z,7.22
2023-01-26T01:53:03.925Z,6.70
2023-01-26T01:55:30.312Z,7.25
2023-01-26T01:58:00.121Z,6.97
2023-01-26T02:00:26.894Z,6.40
2023-01-26T02:03:19.105Z,6.80
2023-01-26T02:06:03.587Z,6.47
2023-01-26T02:18:55.904Z,5.35
2023-01-26T02:21:23.140Z,6.07
2023-01-26T02:24:09.742Z,6.38
2023-01-26T02:26:37.045Z,7.10
2023-01-26T02:29:06.707Z,6.70
2023-01-26T02:31:33.088Z,6.28
2023-01-26T02:33:59.490Z,7.95
2023-01-26T02:36:28.328Z,7.80
2023-01-26T02:39:29.848Z,8.73
2023-01-26T02:42:14.800Z,7.68
2023-01-26T02:44:42.232Z,6.90
2023-01-26T02:47:16.815Z,6.95
2023-01-26T02:53:29.649Z,7.07
2023-01-26T03:03:41.505Z,6.90
2023-01-26T03:06:09.457Z,6.55
2023-01-26T03:08:35.884Z,6.60
2023-01-26T03:11:02.323Z,6.60
2023-01-26T03:13:28.654Z,7.55
2023-01-26T03:15:55.144Z,6.85
2023-01-26T03:18:41.525Z,6.82
2023-01-26T03:21:34.583Z,7.63
2023-01-26T03:24:20.056Z,7.28
2023-01-26T03:27:05.082Z,7.47
2023-01-26T03:29:32.555Z,7.50
2023-01-26T03:31:59.274Z,8.32
2023-01-26T03:34:26.325Z,8.40
2023-01-26T03:36:52.688Z,8.02
2023-01-26T03:39:37.526Z,8.95
2023-01-26T03:42:23.474Z,8.98
2023-01-26T03:45:08.347Z,8.70
2023-01-26T03:47:53.900Z,9.70
2023-01-26T03:50:38.912Z,8.35
2023-01-26T03:53:41.806Z,8.85
2023-01-26T03:56:17.890Z,7.97
2023-01-26T03:58:52.828Z,8.63
2023-01-26T04:01:27.585Z,9.43
2023-01-26T04:04:14.932Z,9.10
2023-01-26T04:07:02.390Z,8.55
2023-01-26T04:09:29.193Z,8.32
2023-01-26T04:11:55.523Z,8.20
2023-01-26T04:14:49.903Z,8.60
2023-01-26T04:17:36.554Z,9.48
2023-01-26T04:20:24.678Z,8.80
2023-01-26T04:22:51.094Z,9.23
2023-01-26T04:25:19.556Z,9.13
2023-01-26T04:27:46.187Z,10.02
2023-01-26T04:30:14.789Z,9.02
2023-01-26T04:32:41.293Z,8.40
2023-01-26T04:35:08.559Z,8.98
2023-01-26T04:37:34.939Z,9.23
2023-01-26T04:40:01.540Z,9.93
2023-01-26T04:42:28.040Z,9.77
2023-01-26T04:44:54.663Z,9.05
2023-01-26T04:47:21.472Z,9.68
2023-01-26T04:49:48.019Z,9.35
2023-01-26T04:52:14.912Z,9.90
2023-01-26T04:54:41.688Z,10.00
2023-01-26T04:57:08.386Z,9.25
2023-01-26T04:59:34.738Z,8.43
2023-01-26T05:02:01.100Z,9.60
2023-01-26T05:04:27.715Z,8.63
2023-01-26T05:06:54.119Z,8.68
2023-01-26T05:09:20.484Z,8.02
2023-01-26T05:11:46.822Z,9.07
2023-01-26T05:14:13.150Z,9.43
2023-01-26T05:16:39.588Z,9.25
2023-01-26T05:19:05.954Z,8.50
2023-01-26T05:21:32.331Z,8.02
2023-01-26T05:23:58.699Z,9.45
2023-01-26T05:26:25.133Z,9.23
2023-01-26T05:28:51.482Z,7.90
2023-01-26T05:31:17.942Z,7.50
2023-01-26T05:33:44.368Z,7.00
2023-01-26T05:36:10.712Z,7.32
2023-01-26T05:38:37.089Z,7.80
2023-01-26T05:41:03.511Z,8.20
2023-01-26T05:43:30.562Z,8.68
2023-01-26T05:45:56.974Z,8.45
2023-01-26T05:48:23.344Z,8.63
2023-01-26T05:50:49.698Z,8.80
2023-01-26T05:53:16.062Z,8.13
2023-01-26T05:55:43.191Z,8.02
2023-01-26T05:58:09.657Z,7.43
2023-01-26T06:00:36.011Z,7.38
2023-01-26T06:03:02.396Z,7.78
2023-01-26T06:05:28.763Z,7.75
2023-01-26T06:07:55.086Z,6.80
2023-01-26T06:10:21.555Z,7.18
2023-01-26T06:12:47.952Z,7.18
2023-01-26T06:15:14.378Z,7.75
2023-01-26T06:17:40.979Z,8.10
2023-01-26T06:20:08.609Z,6.95
2023-01-26T06:22:35.026Z,7.05
2023-01-26T06:25:01.610Z,6.82
2023-01-26T06:27:28.629Z,6.70
2023-01-26T06:29:54.977Z,6.43
2023-01-26T06:32:21.371Z,6.57
2023-01-26T06:34:47.736Z,7.25
2023-01-26T06:37:14.132Z,7.80
2023-01-26T06:39:41.514Z,6.47
2023-01-26T06:42:08.445Z,7.53
2023-01-26T06:44:34.794Z,6.90
2023-01-26T06:47:01.301Z,6.88
2023-01-26T06:49:27.671Z,7.22
2023-01-26T06:52:06.117Z,7.60
2023-01-26T06:54:32.532Z,7.63
2023-01-26T06:56:58.950Z,7.03
2023-01-26T06:59:25.709Z,8.00
2023-01-26T07:01:52.084Z,6.97
2023-01-26T07:04:18.498Z,8.05
2023-01-26T07:06:44.869Z,7.25
2023-01-26T07:09:11.388Z,8.02
2023-01-26T07:11:37.847Z,7.60
2023-01-26T07:14:04.442Z,7.53
2023-01-26T07:16:33.537Z,8.02
2023-01-26T07:19:00.150Z,6.72
2023-01-26T07:21:26.538Z,7.40
2023-01-26T07:23:53.286Z,7.25
2023-01-26T07:26:21.047Z,7.00
2023-01-26T07:28:47.587Z,7.32
2023-01-26T07:31:16.147Z,7.13
2023-01-26T07:33:42.673Z,6.35
2023-01-26T07:36:10.825Z,7.03
2023-01-26T07:38:37.235Z,7.50
2023-01-26T07:41:08.999Z,7.57
2023-01-26T07:43:36.525Z,6.53
2023-01-26T07:46:03.294Z,6.95
2023-01-26T07:48:31.058Z,6.60
2023-01-26T07:51:02.137Z,6.25
2023-01-26T07:53:29.928Z,6.50
2023-01-26T07:56:09.265Z,6.43
2023-01-26T07:58:36.031Z,6.68
2023-01-26T08:01:06.463Z,6.10
2023-01-26T08:03:32.823Z,6.28
2023-01-26T08:05:59.145Z,6.13
2023-01-26T08:08:26.306Z,5.95
2023-01-26T08:10:56.006Z,9.45
2023-01-26T08:13:34.389Z,8.57
2023-01-26T08:16:07.264Z,9.20
2023-01-26T08:18:33.700Z,8.05
2023-01-26T08:21:00.431Z,7.10
2023-01-26T08:23:29.002Z,6.78
2023-01-26T08:25:55.477Z,7.40
2023-01-26T08:28:22.559Z,6.10
2023-01-26T08:30:48.997Z,6.22
2023-01-26T08:33:15.388Z,6.32
2023-01-26T08:35:41.717Z,5.88
2023-01-26T08:38:08.101Z,6.22
2023-01-26T08:40:34.523Z,5.72
2023-01-26T08:43:02.479Z,5.75
2023-01-26T08:45:32.014Z,5.55
2023-01-26T08:47:58.451Z,5.43
2023-01-26T08:50:25.552Z,5.30
2023-01-26T08:52:51.885Z,6.03
2023-01-26T08:55:18.271Z,6.82
2023-01-26T08:57:45.508Z,5.70
2023-01-26T09:00:12.979Z,5.65
2023-01-26T09:02:39.757Z,5.55
2023-01-26T09:05:06.737Z,6.05
2023-01-26T09:07:33.090Z,5.35
2023-01-26T09:09:59.481Z,5.95
2023-01-26T09:12:25.875Z,6.00
2023-01-26T09:14:52.280Z,5.88
2023-01-26T09:17:18.658Z,5.55
2023-01-26T09:19:45.140Z,5.90
2023-01-26T09:22:11.571Z,8.20
2023-01-26T09:24:37.957Z,6.30
2023-01-26T09:27:04.399Z,7.18
2023-01-26T09:29:30.782Z,6.43
2023-01-26T09:31:57.227Z,6.47
2023-01-26T09:34:25.211Z,6.90
2023-01-26T09:36:51.723Z,7.35
2023-01-26T09:39:18.125Z,7.18
2023-01-26T09:41:47.459Z,7.13
2023-01-26T09:44:20.727Z,7.20
2023-01-26T09:46:52.825Z,7.05
2023-01-26T09:49:23.720Z,6.97
2023-01-26T09:52:13.398Z,7.22
2023-01-26T09:54:43.703Z,5.97
2023-01-26T09:57:23.516Z,6.43
2023-01-26T10:00:04.558Z,7.40
2023-01-26T10:02:52.635Z,6.53
2023-01-26T10:05:43.506Z,7.45
2023-01-26T10:08:14.874Z,7.68
2023-01-26T10:10:50.869Z,7.47
2023-01-26T10:13:17.816Z,7.53
2023-01-26T10:16:03.848Z,7.22
2023-01-26T10:18:33.531Z,7.10
2023-01-26T10:21:02.607Z,8.68
2023-01-26T10:23:31.370Z,8.60
2023-01-26T10:26:18.537Z,8.50
2023-01-26T10:28:46.603Z,9.50
2023-01-26T10:31:21.312Z,9.88
2023-01-26T10:33:56.864Z,9.48
2023-01-26T10:36:23.555Z,9.60
2023-01-26T10:38:51.547Z,9.35
2023-01-26T10:41:28.898Z,9.57
2023-01-26T10:43:58.275Z,10.02
2023-01-26T10:46:30.943Z,9.43
2023-01-26T10:49:01.008Z,9.35
2023-01-26T10:51:30.448Z,10.40
2023-01-26T10:54:22.721Z,10.65
2023-01-26T10:56:53.247Z,8.85
2023-01-26T10:59:28.488Z,9.70
2023-01-26T11:02:03.847Z,10.57
2023-01-26T11:04:30.472Z,10.20
2023-01-26T11:07:18.409Z,10.18
2023-01-26T11:09:44.810Z,10.55
2023-01-26T11:12:17.861Z,10.63
2023-01-26T11:15:00.165Z,10.88
2023-01-26T11:17:33.320Z,11.05
2023-01-26T11:20:08.659Z,11.20
2023-01-26T11:22:50.299Z,11.25
2023-01-26T11:25:30.827Z,11.18
2023-01-26T11:28:32.462Z,11.25
2023-01-26T11:31:13.689Z,10.18
2023-01-26T11:34:07.544Z,9.27
2023-01-26T11:36:48.597Z,9.23
2023-01-26T11:39:39.646Z,8.43
2023-01-26T11:42:24.113Z,8.52
2023-01-26T11:44:56.601Z,9.25
2023-01-26T11:47:44.375Z,6.95
2023-01-26T11:50:22.755Z,7.55
2023-01-26T11:53:15.884Z,7.07
2023-01-26T11:56:07.599Z,7.97
2023-01-26T11:58:42.748Z,7.65
2023-01-26T12:01:58.631Z,7.70
2023-01-26T12:04:28.473Z,7.82
2023-01-26T12:07:00.220Z,8.05
2023-01-26T12:09:36.808Z,8.07
2023-01-26T12:12:17.618Z,8.93
2023-01-26T12:42:29.895Z,9.63
2023-01-26T12:45:01.697Z,8.40
2023-01-26T12:47:32.219Z,10.18
2023-01-26T12:50:04.273Z,10.52
2023-01-26T12:52:47.119Z,10.80
2023-01-26T12:59:03.739Z,10.30
2023-01-26T13:01:39.153Z,11.05
2023-01-26T13:04:09.926Z,11.20
2023-01-26T13:06:36.361Z,11.13
2023-01-26T13:09:17.732Z,12.05
2023-01-26T13:11:48.085Z,11.32
2023-01-26T13:14:29.343Z,11.00
2023-01-26T13:16:56.450Z,11.18
2023-01-26T13:19:44.374Z,11.43
2023-01-26T13:22:23.708Z,11.38
2023-01-26T13:28:40.362Z,11.05
2023-01-26T13:31:07.351Z,11.45
2023-01-26T13:33:33.790Z,11.82
2023-01-26T13:36:03.706Z,11.68
2023-01-26T13:38:47.823Z,11.68
2023-01-26T13:47:39.786Z,11.43
2023-01-26T13:50:23.586Z,11.48
2023-01-26T13:52:50.192Z,11.05
2023-01-26T13:55:25.278Z,11.20
2023-01-26T13:58:15.658Z,11.73
2023-01-26T14:00:42.072Z,11.82
2023-01-26T14:03:22.131Z,12.32
2023-01-26T14:05:53.904Z,11.82
2023-01-26T14:08:22.391Z,11.93
2023-01-26T14:10:49.359Z,10.90
2023-01-26T14:13:23.083Z,10.40
2023-01-26T14:15:57.687Z,11.77
2023-01-26T14:18:24.409Z,11.63
2023-01-26T14:20:58.878Z,11.27
2023-01-26T14:27:27.122Z,11.20
2023-01-26T14:29:53.563Z,13.60
2023-01-26T14:32:25.332Z,11.65
2023-01-26T14:34:53.803Z,13.25
2023-01-26T14:37:20.233Z,13.07
2023-01-26T14:39:48.052Z,13.10
2023-01-26T14:42:19.244Z,12.32
2023-01-26T14:44:45.948Z,11.98
2023-01-26T14:47:23.298Z,12.13
2023-01-26T14:49:58.058Z,12.35
2023-01-26T14:52:27.363Z,12.88
2023-01-26T14:54:56.421Z,13.35
2023-01-26T14:57:25.889Z,13.82
2023-01-26T14:59:55.888Z,12.55
2023-01-26T15:02:27.578Z,13.23
2023-01-26T15:05:02.818Z,13.55
2023-01-26T15:07:41.295Z,14.35
2023-01-26T15:10:27.924Z,13.95
2023-01-26T15:13:15.292Z,13.98
2023-01-26T15:15:48.630Z,13.70
2023-01-26T15:18:14.971Z,14.25
2023-01-26T15:21:04.914Z,15.27
2023-01-26T15:23:41.511Z,13.95
2023-01-26T15:26:29.361Z,15.30
2023-01-26T15:28:57.642Z,14.45
2023-01-26T15:31:36.975Z,14.52
2023-01-26T15:34:05.018Z,15.60
2023-01-26T15:36:51.248Z,15.30
2023-01-26T15:39:18.674Z,15.40
2023-01-26T15:42:01.699Z,16.20
2023-01-26T15:44:28.260Z,14.15
2023-01-26T15:46:56.382Z,16.10
2023-01-26T15:49:23.392Z,14.60
2023-01-26T15:51:49.751Z,14.57
2023-01-26T15:54:16.262Z,15.55
2023-01-26T15:56:43.033Z,16.08
2023-01-26T15:59:09.353Z,14.80
2023-01-26T16:01:35.749Z,14.15
2023-01-26T16:04:02.070Z,30.85
2023-01-26T16:06:30.510Z,17.85
2023-01-26T16:08:56.963Z,15.57
2023-01-26T16:11:27.917Z,15.93
2023-01-26T16:14:03.335Z,16.02
2023-01-26T16:16:30.843Z,14.98
2023-01-26T16:18:57.293Z,14.75
2023-01-26T16:21:26.403Z,15.32
2023-01-26T16:23:52.794Z,16.13
2023-01-26T16:26:19.583Z,15.77
2023-01-26T16:28:46.317Z,14.95
2023-01-26T16:34:59.293Z,15.32
2023-01-26T16:41:25.760Z,14.13
2023-01-26T16:47:32.427Z,15.70
2023-01-26T16:49:59.391Z,16.58
2023-01-26T16:52:25.759Z,17.05
2023-01-26T16:58:39.845Z,16.13
2023-01-26T17:01:06.878Z,15.85
2023-01-26T17:03:33.272Z,16.02
2023-01-26T17:05:59.606Z,16.17
2023-01-26T17:08:26.046Z,17.35
2023-01-26T17:11:01.940Z,24.13
2023-01-26T17:13:28.679Z,19.17
2023-01-26T17:15:56.346Z,17.27
2023-01-26T17:18:22.962Z,16.95
2023-01-26T17:20:49.295Z,15.85
2023-01-26T17:23:15.654Z,15.82
2023-01-26T17:25:42.037Z,16.42
2023-01-26T17:28:08.509Z,17.63
2023-01-26T17:30:34.993Z,15.27
2023-01-26T17:33:01.852Z,16.95
2023-01-26T17:35:28.174Z,16.13
2023-01-26T17:37:54.531Z,16.92
2023-01-26T17:40:20.891Z,16.00
2023-01-26T17:42:47.271Z,16.40
2023-01-26T17:45:14.036Z,15.40
2023-01-26T17:47:40.548Z,15.80
2023-01-26T17:50:07.514Z,14.48
2023-01-26T17:52:35.385Z,14.52
2023-01-26T17:55:05.058Z,16.83
2023-01-26T17:57:31.632Z,16.27
2023-01-26T17:59:58.026Z,14.90
2023-01-26T18:02:24.892Z,16.02
2023-01-26T18:04:51.360Z,15.85
2023-01-26T18:07:17.695Z,16.58
2023-01-26T18:09:44.059Z,16.00
2023-01-26T18:12:10.422Z,17.58
2023-01-26T18:14:36.847Z,17.20
2023-01-26T18:17:03.228Z,17.25
2023-01-26T18:19:29.662Z,18.58
2023-01-26T18:21:56.009Z,16.70
2023-01-26T18:24:22.469Z,16.95
2023-01-26T18:26:49.252Z,15.82
2023-01-26T18:29:16.573Z,16.73
2023-01-26T18:31:43.383Z,15.15
2023-01-26T18:37:58.073Z,17.20
2023-01-26T18:40:24.898Z,15.70
2023-01-26T18:42:55.466Z,17.13
2023-01-26T18:45:22.005Z,16.80
2023-01-26T18:47:49.536Z,16.70
2023-01-26T18:50:16.804Z,17.10
2023-01-26T18:52:43.182Z,16.80
2023-01-26T18:55:10.584Z,16.65
2023-01-26T18:57:37.267Z,16.42
2023-01-26T19:00:05.547Z,15.95
2023-01-26T19:02:33.536Z,18.85
2023-01-26T19:05:00.700Z,17.50
2023-01-26T19:07:27.020Z,19.20
2023-01-26T19:09:53.386Z,17.80
2023-01-26T19:12:19.734Z,20.45
2023-01-26T19:14:46.108Z,20.30
2023-01-26T19:17:12.908Z,18.50
2023-01-26T19:19:40.996Z,20.60
2023-01-26T19:22:07.911Z,30.67
2023-01-26T19:24:34.317Z,37.92
2023-01-26T19:27:01.295Z,29.73
2023-01-26T19:29:27.785Z,22.52
2023-01-26T19:31:54.360Z,20.08
2023-01-26T19:34:20.747Z,17.35
2023-01-26T19:36:47.275Z,17.17
2023-01-26T19:39:13.754Z,16.98
2023-01-26T19:41:40.439Z,17.92
2023-01-26T19:44:07.231Z,19.40
2023-01-26T19:46:33.655Z,18.38
2023-01-26T19:49:00.016Z,17.90
2023-01-26T19:51:27.026Z,17.50
2023-01-26T19:53:55.424Z,18.27
2023-01-26T19:56:24.657Z,18.17
2023-01-26T19:58:59.768Z,18.00
2023-01-26T20:01:27.845Z,19.35
2023-01-26T20:03:58.757Z,19.13
2023-01-26T20:06:27.921Z,19.25
2023-01-26T20:08:54.994Z,18.98
2023-01-26T20:11:24.995Z,18.60
2023-01-26T20:14:02.882Z,18.08
2023-01-26T20:16:30.050Z,19.08
2023-01-26T20:18:57.440Z,18.00
2023-01-26T20:21:24.709Z,18.30
2023-01-26T20:23:54.863Z,17.05
2023-01-26T20:26:22.812Z,18.48
2023-01-26T20:28:49.218Z,17.83
2023-01-26T20:31:18.305Z,17.63
2023-01-26T20:33:49.609Z,17.60
2023-01-26T20:36:19.012Z,19.40
2023-01-26T20:38:46.355Z,17.92
2023-01-26T20:41:15.696Z,17.73
2023-01-26T20:43:58.175Z,18.48
2023-01-26T20:46:27.753Z,17.85
2023-01-26T20:48:55.542Z,18.42
2023-01-26T20:51:24.928Z,17.42
2023-01-26T20:53:51.344Z,18.92
2023-01-26T20:56:20.367Z,18.85
2023-01-26T20:58:46.751Z,18.80
2023-01-26T21:01:15.472Z,18.48
2023-01-26T21:03:42.038Z,17.67
2023-01-26T21:06:10.060Z,17.20
2023-01-26T21:08:36.948Z,18.00
2023-01-26T21:11:04.576Z,18.65
2023-01-26T21:13:31.013Z,18.05
2023-01-26T21:15:57.374Z,19.35
2023-01-26T21:18:23.792Z,18.75
2023-01-26T21:20:57.430Z,18.58
2023-01-26T21:23:24.187Z,19.10
2023-01-26T21:25:57.291Z,20.27
2023-01-26T21:28:23.685Z,19.40
2023-01-26T21:31:04.293Z,19.83
2023-01-26T21:33:31.991Z,19.73
2023-01-26T21:35:59.505Z,19.75
2023-01-26T21:38:26.497Z,20.52
2023-01-26T21:41:32.491Z,20.70
2023-01-26T21:44:04.018Z,21.30
2023-01-26T21:46:30.665Z,19.30
2023-01-26T21:48:57.152Z,19.17
2023-01-26T21:51:43.123Z,20.95
2023-01-26T21:54:09.806Z,19.52
2023-01-26T21:56:36.267Z,21.08
2023-01-26T21:59:06.046Z,20.48
2023-01-26T22:01:37.098Z,20.05
2023-01-26T22:04:07.481Z,21.95
2023-01-26T22:06:34.648Z,20.30
2023-01-26T22:09:01.284Z,19.63
2023-01-26T22:11:28.386Z,19.35
2023-01-26T22:13:55.005Z,19.70
2023-01-26T22:16:21.539Z,18.35
2023-01-26T22:18:48.772Z,18.15
2023-01-26T22:21:15.713Z,17.83
2023-01-26T22:23:42.493Z,17.15
2023-01-26T22:26:13.560Z,18.15
2023-01-26T22:28:40.640Z,17.65
2023-01-26T22:31:07.640Z,16.85
2023-01-26T22:33:34.895Z,15.90
2023-01-26T22:36:06.148Z,16.27
2023-01-26T22:38:33.233Z,16.83
2023-01-26T22:41:00.333Z,16.27
2023-01-26T22:43:27.193Z,16.83
2023-01-26T22:45:53.775Z,18.48
2023-01-26T22:48:20.744Z,17.25
2023-01-26T22:50:49.527Z,17.05
2023-01-26T22:53:15.898Z,17.73
2023-01-26T22:55:42.983Z,17.25
2023-01-26T22:58:12.075Z,17.67
2023-01-26T23:00:39.252Z,17.00
2023-01-26T23:03:05.833Z,16.90
2023-01-26T23:05:33.648Z,17.25
2023-01-26T23:08:00.732Z,17.90
2023-01-26T23:10:28.002Z,17.05
2023-01-26T23:12:54.491Z,16.40
2023-01-26T23:15:20.890Z,16.67
2023-01-26T23:17:51.586Z,15.45
2023-01-26T23:20:19.522Z,16.48
2023-01-26T23:22:46.144Z,17.02
2023-01-26T23:25:31.386Z,17.50
2023-01-26T23:28:00.845Z,15.70
2023-01-26T23:30:27.234Z,17.77
2023-01-26T23:32:53.584Z,16.85
2023-01-26T23:35:19.954Z,16.38
2023-01-26T23:37:46.407Z,15.57
2023-01-26T23:40:13.481Z,15.10
2023-01-26T23:43:00.274Z,15.70
2023-01-26T23:45:26.367Z,16.05
2023-01-26T23:47:52.826Z,17.88
2023-01-26T23:50:19.166Z,15.77
2023-01-26T23:52:45.532Z,15.45
2023-01-26T23:55:12.004Z,16.92
2023-01-26T23:57:38.417Z,16.35
